createdAt,value
2023-01-12T00:01:42.493Z,8.73
2023-01-12T00:04:12.736Z,6.07
2023-01-12T00:06:40.347Z,11.52
2023-01-12T00:09:07.657Z,9.20
2023-01-12T00:11:35.556Z,5.90
2023-01-12T00:14:02.493Z,14.00
2023-01-12T00:16:34.880Z,9.57
2023-01-12T00:19:15.635Z,7.97
2023-01-12T00:21:59.248Z,3.97
2023-01-12T00:24:31.020Z,5.75
2023-01-12T00:26:59.322Z,7.80
2023-01-12T00:29:26.908Z,7.07
2023-01-12T00:31:54.945Z,7.93
2023-01-12T00:34:21.612Z,10.60
2023-01-12T00:36:48.374Z,7.22
2023-01-12T00:39:15.968Z,12.43
2023-01-12T00:42:02.124Z,9.25
2023-01-12T00:44:47.432Z,8.00
2023-01-12T00:47:15.248Z,11.60
2023-01-12T00:49:41.890Z,10.20
2023-01-12T00:52:15.560Z,9.63
2023-01-12T00:54:48.137Z,8.38
2023-01-12T00:57:15.482Z,10.70
2023-01-12T00:59:44.514Z,12.38
2023-01-12T01:02:12.550Z,17.42
2023-01-12T01:04:39.032Z,15.07
2023-01-12T01:07:05.548Z,12.23
2023-01-12T01:09:31.968Z,11.63
2023-01-12T01:11:58.482Z,17.10
2023-01-12T01:14:25.747Z,13.02
2023-01-12T01:16:52.267Z,11.20
2023-01-12T01:19:18.879Z,10.05
2023-01-12T01:21:45.527Z,13.80
2023-01-12T01:24:13.281Z,10.15
2023-01-12T01:26:40.603Z,12.13
2023-01-12T01:29:07.407Z,13.27
2023-01-12T01:31:34.245Z,15.70
2023-01-12T01:34:00.698Z,16.80
2023-01-12T01:36:27.202Z,10.07
2023-01-12T01:38:53.685Z,9.07
2023-01-12T01:41:24.032Z,11.37
2023-01-12T01:44:00.217Z,9.50
2023-01-12T01:46:33.515Z,10.25
2023-01-12T01:49:34.967Z,10.73
2023-01-12T01:52:08.417Z,8.63
2023-01-12T01:54:41.177Z,7.27
2023-01-12T01:57:10.088Z,7.03
2023-01-12T01:59:39.811Z,6.65
2023-01-12T02:02:06.972Z,6.45
2023-01-12T02:04:33.555Z,9.45
2023-01-12T02:07:02.392Z,8.60
2023-01-12T02:09:30.755Z,10.27
2023-01-12T02:12:16.854Z,8.65
2023-01-12T02:15:05.686Z,5.93
2023-01-12T02:17:32.025Z,7.40
2023-01-12T02:20:04.400Z,9.37
2023-01-12T02:22:50.088Z,10.20
2023-01-12T02:25:38.339Z,11.85
2023-01-12T02:28:43.092Z,5.13
2023-01-12T02:31:24.730Z,7.30
2023-01-12T02:34:09.714Z,4.80
2023-01-12T02:37:10.424Z,8.05
2023-01-12T02:39:45.007Z,6.45
2023-01-12T02:42:42.170Z,5.95
2023-01-12T02:45:43.332Z,7.22
2023-01-12T02:48:21.831Z,2.53
2023-01-12T02:51:07.451Z,1.83
2023-01-12T02:53:56.839Z,4.03
2023-01-12T02:56:36.854Z,4.75
2023-01-12T02:59:11.949Z,4.38
2023-01-12T03:01:40.993Z,6.07
2023-01-12T03:04:09.065Z,6.13
2023-01-12T03:06:55.847Z,6.75
2023-01-12T03:09:28.687Z,3.90
2023-01-12T03:12:00.885Z,4.90
2023-01-12T03:14:29.739Z,4.50
2023-01-12T03:16:56.707Z,4.30
2023-01-12T03:19:30.322Z,6.47
2023-01-12T03:22:07.556Z,4.32
2023-01-12T03:24:39.445Z,4.60
2023-01-12T03:27:14.270Z,4.73
2023-01-12T03:29:50.293Z,3.65
2023-01-12T03:32:18.084Z,7.65
2023-01-12T03:34:45.890Z,6.53
2023-01-12T03:37:37.289Z,3.03
2023-01-12T03:40:15.115Z,8.07
2023-01-12T03:42:58.745Z,4.57
2023-01-12T03:45:31.497Z,5.80
2023-01-12T03:48:05.353Z,4.28
2023-01-12T03:50:41.525Z,4.22
2023-01-12T03:53:10.305Z,2.77
2023-01-12T03:55:38.177Z,3.33
2023-01-12T03:58:05.374Z,4.57
2023-01-12T04:00:32.078Z,3.42
2023-01-12T04:03:10.993Z,3.67
2023-01-12T04:05:38.453Z,3.67
2023-01-12T04:08:05.976Z,5.05
2023-01-12T04:10:32.519Z,3.75
2023-01-12T04:12:58.980Z,3.70
2023-01-12T04:15:25.622Z,2.78
2023-01-12T04:17:52.055Z,3.47
2023-01-12T04:20:18.932Z,3.38
2023-01-12T04:22:46.329Z,4.22
2023-01-12T04:25:15.686Z,3.20
2023-01-12T04:27:51.978Z,3.92
2023-01-12T04:30:22.875Z,5.63
2023-01-12T04:32:50.297Z,4.60
2023-01-12T04:35:17.041Z,4.07
2023-01-12T04:37:44.450Z,2.72
2023-01-12T04:40:13.102Z,4.97
2023-01-12T04:43:02.062Z,3.03
2023-01-12T04:45:30.649Z,3.25
2023-01-12T04:48:01.394Z,7.63
2023-01-12T04:50:27.876Z,2.95
2023-01-12T04:52:54.290Z,4.43
2023-01-12T04:55:20.811Z,4.67
2023-01-12T04:57:47.440Z,3.15
2023-01-12T05:00:14.281Z,1.15
2023-01-12T05:02:40.675Z,1.98
2023-01-12T05:05:08.659Z,2.88
2023-01-12T05:07:35.339Z,3.57
2023-01-12T05:10:20.634Z,3.53
2023-01-12T05:12:47.417Z,4.47
2023-01-12T05:15:13.895Z,2.53
2023-01-12T05:17:40.394Z,5.47
2023-01-12T05:20:07.442Z,4.67
2023-01-12T05:22:33.868Z,3.28
2023-01-12T05:25:00.277Z,3.50
2023-01-12T05:27:26.693Z,2.38
2023-01-12T05:29:53.079Z,1.95
2023-01-12T05:32:19.606Z,4.03
2023-01-12T05:34:46.024Z,3.17
2023-01-12T05:37:12.392Z,2.47
2023-01-12T05:39:38.785Z,1.75
2023-01-12T05:42:23.595Z,4.38
2023-01-12T05:44:49.969Z,1.50
2023-01-12T05:47:16.399Z,1.55
2023-01-12T05:49:42.772Z,3.30
2023-01-12T05:52:09.222Z,2.00
2023-01-12T05:54:35.610Z,1.88
2023-01-12T05:57:02.009Z,2.57
2023-01-12T05:59:28.433Z,1.63
2023-01-12T06:01:54.789Z,0.40
2023-01-12T06:04:21.250Z,0.90
2023-01-12T06:06:48.711Z,1.58
2023-01-12T06:09:15.238Z,1.60
2023-01-12T06:11:59.894Z,1.73
2023-01-12T06:14:26.800Z,2.35
2023-01-12T06:16:53.220Z,1.23
2023-01-12T06:19:19.644Z,1.38
2023-01-12T06:21:46.070Z,1.27
2023-01-12T06:24:12.568Z,2.65
2023-01-12T06:26:39.085Z,0.90
2023-01-12T06:29:07.048Z,1.33
2023-01-12T06:31:34.043Z,2.45
2023-01-12T06:34:00.649Z,1.90
2023-01-12T06:36:27.101Z,1.70
2023-01-12T06:38:53.497Z,0.20
2023-01-12T06:41:45.744Z,0.35
2023-01-12T06:44:12.160Z,0.85
2023-01-12T06:46:38.688Z,0.30
2023-01-12T06:49:05.234Z,0.28
2023-01-12T06:51:31.728Z,1.80
2023-01-12T06:53:58.144Z,0.40
2023-01-12T06:56:24.559Z,0.55
2023-01-12T06:58:50.914Z,0.30
2023-01-12T07:01:17.414Z,0.77
2023-01-12T07:03:44.212Z,1.30
2023-01-12T07:06:10.765Z,0.50
2023-01-12T07:08:37.339Z,0.17
2023-01-12T07:11:08.073Z,0.40
2023-01-12T07:13:34.834Z,1.20
2023-01-12T07:16:02.160Z,1.10
2023-01-12T07:18:29.668Z,0.45
2023-01-12T07:20:56.171Z,2.47
2023-01-12T07:23:23.058Z,0.67
2023-01-12T07:25:49.505Z,2.45
2023-01-12T07:28:16.083Z,0.63
2023-01-12T07:30:43.590Z,2.42
2023-01-12T07:33:12.579Z,2.50
2023-01-12T07:35:39.702Z,2.10
2023-01-12T07:38:06.426Z,3.22
2023-01-12T07:40:33.553Z,3.38
2023-01-12T07:43:01.504Z,7.32
2023-01-12T07:45:29.264Z,3.33
2023-01-12T07:47:56.676Z,2.33
2023-01-12T07:50:24.715Z,5.18
2023-01-12T07:52:51.346Z,5.72
2023-01-12T07:55:19.227Z,2.88
2023-01-12T07:57:55.866Z,2.45
2023-01-12T08:00:23.414Z,5.83
2023-01-12T08:02:53.875Z,5.20
2023-01-12T08:05:22.370Z,6.75
2023-01-12T08:07:48.828Z,10.20
2023-01-12T08:10:16.145Z,5.68
2023-01-12T08:12:42.562Z,11.27
2023-01-12T08:15:10.353Z,3.88
2023-01-12T08:17:42.221Z,6.88
2023-01-12T08:20:13.807Z,6.30
2023-01-12T08:22:43.663Z,3.75
2023-01-12T08:25:15.945Z,5.60
2023-01-12T08:27:47.236Z,6.95
2023-01-12T08:30:17.566Z,3.67
2023-01-12T08:32:43.948Z,8.95
2023-01-12T08:35:13.445Z,4.80
2023-01-12T08:37:39.983Z,4.03
2023-01-12T08:40:07.279Z,6.47
2023-01-12T08:42:33.677Z,6.82
2023-01-12T08:45:00.321Z,10.10
2023-01-12T08:47:28.299Z,7.88
2023-01-12T08:49:55.387Z,10.10
2023-01-12T08:52:22.069Z,8.70
2023-01-12T08:54:49.736Z,8.57
2023-01-12T08:57:16.944Z,4.93
2023-01-12T08:59:43.335Z,6.45
2023-01-12T09:02:15.079Z,8.37
2023-01-12T09:04:41.998Z,5.50
2023-01-12T09:07:10.545Z,8.70
2023-01-12T09:09:37.167Z,5.90
2023-01-12T09:12:04.678Z,5.55
2023-01-12T09:14:33.553Z,9.23
2023-01-12T09:16:59.959Z,8.02
2023-01-12T09:19:26.376Z,9.70
2023-01-12T09:21:52.859Z,11.93
2023-01-12T09:24:20.002Z,9.02
2023-01-12T09:26:47.111Z,6.10
2023-01-12T09:29:14.560Z,8.15
2023-01-12T09:31:44.190Z,5.20
2023-01-12T09:34:10.727Z,13.30
2023-01-12T09:36:39.231Z,6.78
2023-01-12T09:39:09.822Z,14.77
2023-01-12T09:42:03.030Z,8.27
2023-01-12T09:45:00.734Z,12.30
2023-01-12T09:47:53.655Z,6.90
2023-01-12T09:50:28.263Z,14.52
2023-01-12T09:53:03.467Z,9.07
2023-01-12T09:55:47.237Z,13.20
2023-01-12T09:58:39.363Z,6.47
2023-01-12T10:01:17.572Z,10.75
2023-01-12T10:03:55.556Z,16.27
2023-01-12T10:06:25.217Z,12.47
2023-01-12T10:08:57.488Z,12.82
2023-01-12T10:11:33.377Z,10.93
2023-01-12T10:14:24.506Z,10.60
2023-01-12T10:17:15.872Z,14.13
2023-01-12T10:20:04.419Z,10.10
2023-01-12T10:22:44.273Z,8.57
2023-01-12T10:25:16.580Z,12.88
2023-01-12T10:27:45.204Z,6.60
2023-01-12T10:30:17.401Z,11.70
2023-01-12T10:32:44.321Z,6.70
2023-01-12T10:35:17.191Z,5.38
2023-01-12T10:37:52.282Z,13.50
2023-01-12T10:40:27.011Z,9.85
2023-01-12T10:43:24.023Z,9.05
2023-01-12T10:46:04.339Z,8.73
2023-01-12T10:48:31.406Z,6.82
2023-01-12T10:51:07.707Z,9.30
2023-01-12T10:54:11.405Z,9.82
2023-01-12T10:56:44.208Z,8.15
2023-01-12T10:59:13.409Z,4.97
2023-01-12T11:01:43.102Z,4.32
2023-01-12T11:04:13.769Z,7.95
2023-01-12T11:06:44.198Z,7.03
2023-01-12T11:09:20.381Z,8.30
2023-01-12T11:11:46.980Z,9.30
2023-01-12T11:14:25.495Z,3.38
2023-01-12T11:16:52.033Z,4.65
2023-01-12T11:19:35.394Z,4.07
2023-01-12T11:22:20.782Z,6.30
2023-01-12T11:24:57.054Z,6.20
2023-01-12T11:30:16.032Z,3.55
2023-01-12T11:32:59.996Z,5.60
2023-01-12T11:35:51.456Z,10.02
2023-01-12T11:38:41.661Z,7.17
2023-01-12T11:41:19.083Z,7.72
2023-01-12T11:43:56.165Z,4.65
2023-01-12T11:46:34.739Z,6.57
2023-01-12T11:49:27.232Z,4.82
2023-01-12T11:51:56.774Z,5.27
2023-01-12T11:54:25.188Z,6.65
2023-01-12T11:57:27.554Z,6.88
2023-01-12T12:00:18.869Z,4.75
2023-01-12T12:03:11.734Z,5.20
2023-01-12T12:05:50.513Z,6.90
2023-01-12T12:08:23.006Z,6.72
2023-01-12T12:10:54.475Z,5.93
2023-01-12T12:13:42.983Z,3.20
2023-01-12T12:16:18.698Z,3.00
2023-01-12T12:19:23.831Z,3.47
2023-01-12T12:21:54.922Z,2.45
2023-01-12T12:24:39.413Z,4.05
2023-01-12T12:27:15.407Z,0.77
2023-01-12T12:30:16.103Z,2.17
2023-01-12T12:33:06.990Z,2.50
2023-01-12T12:35:58.853Z,1.95
2023-01-12T12:39:08.547Z,5.18
2023-01-12T12:42:15.214Z,5.53
2023-01-12T12:45:09.666Z,4.82
2023-01-12T12:48:07.332Z,7.00
2023-01-12T12:50:44.401Z,5.03
2023-01-12T12:53:35.903Z,2.85
2023-01-12T12:56:08.847Z,3.30
2023-01-12T12:58:40.175Z,3.42
2023-01-12T13:01:25.389Z,2.77
2023-01-12T13:04:06.641Z,3.72
2023-01-12T13:06:43.943Z,2.88
2023-01-12T13:09:14.259Z,4.47
2023-01-12T13:12:00.466Z,1.83
2023-01-12T13:14:30.107Z,2.30
2023-01-12T13:17:03.569Z,2.88
2023-01-12T13:19:42.821Z,2.72
2023-01-12T13:22:30.956Z,3.00
2023-01-12T13:25:01.366Z,0.70
2023-01-12T13:27:47.477Z,0.90
2023-01-12T13:30:23.041Z,0.90
2023-01-12T13:32:55.228Z,0.40
2023-01-12T13:35:28.027Z,1.95
2023-01-12T13:38:03.259Z,1.00
2023-01-12T13:40:31.978Z,1.40
2023-01-12T13:43:19.746Z,1.35
2023-01-12T13:45:52.206Z,0.75
2023-01-12T13:48:19.677Z,0.70
2023-01-12T13:50:53.767Z,0.45
2023-01-12T13:53:28.378Z,0.90
2023-01-12T13:55:56.520Z,0.73
2023-01-12T13:58:23.210Z,0.63
2023-01-12T14:00:58.764Z,1.55
2023-01-12T14:03:49.790Z,1.27
2023-01-12T14:06:35.151Z,0.30
2023-01-12T14:09:24.730Z,0.35
2023-01-12T14:12:14.957Z,0.85
2023-01-12T14:15:12.683Z,0.88
2023-01-12T14:17:58.023Z,1.63
2023-01-12T14:20:32.995Z,0.80
2023-01-12T14:23:18.102Z,0.25
2023-01-12T14:25:46.028Z,0.95
2023-01-12T14:28:21.998Z,0.63
2023-01-12T14:30:52.315Z,0.80
2023-01-12T14:33:21.291Z,0.30
2023-01-12T14:35:50.323Z,0.93
2023-01-12T14:38:19.150Z,1.38
2023-01-12T14:41:30.893Z,1.35
2023-01-12T14:44:16.226Z,0.57
2023-01-12T14:46:54.185Z,0.87
2023-01-12T14:49:22.210Z,2.03
2023-01-12T14:52:17.108Z,1.15
2023-01-12T14:54:43.951Z,0.73
2023-01-12T14:57:34.600Z,0.93
2023-01-12T15:00:02.698Z,2.47
2023-01-12T15:02:38.601Z,0.45
2023-01-12T15:05:11.508Z,1.45
2023-01-12T15:07:54.949Z,1.55
2023-01-12T15:10:21.487Z,1.00
2023-01-12T15:12:54.505Z,0.77
2023-01-12T15:15:50.400Z,0.88
2023-01-12T15:18:35.516Z,0.45
2023-01-12T15:21:21.915Z,1.13
2023-01-12T15:24:07.713Z,0.68
2023-01-12T15:26:34.398Z,1.40
2023-01-12T15:29:01.000Z,0.77
2023-01-12T15:31:27.937Z,1.40
2023-01-12T15:33:55.874Z,1.45
2023-01-12T15:36:22.720Z,1.65
2023-01-12T15:38:49.419Z,1.33
2023-01-12T15:41:46.636Z,1.55
2023-01-12T15:44:15.072Z,1.40
2023-01-12T15:46:42.045Z,1.10
2023-01-12T15:49:09.478Z,0.60
2023-01-12T15:51:37.071Z,0.90
2023-01-12T15:54:04.407Z,0.90
2023-01-12T15:56:31.463Z,1.10
2023-01-12T15:58:57.952Z,1.98
2023-01-12T16:01:31.062Z,1.67
2023-01-12T16:04:35.600Z,1.33
2023-01-12T16:06:44.622Z,2.58
2023-01-12T16:09:11.406Z,1.60
2023-01-12T16:11:38.164Z,1.95
2023-01-12T16:14:08.751Z,0.90
2023-01-12T16:16:38.671Z,1.40
2023-01-12T16:19:09.468Z,1.63
2023-01-12T16:21:36.716Z,2.28
2023-01-12T16:24:03.865Z,1.35
2023-01-12T16:26:30.927Z,1.58
2023-01-12T16:28:58.419Z,2.70
2023-01-12T16:31:25.804Z,4.32
2023-01-12T16:33:52.393Z,20.05
2023-01-12T16:36:18.871Z,2.88
2023-01-12T16:38:45.493Z,0.80
2023-01-12T16:41:22.295Z,1.63
2023-01-12T16:43:49.566Z,1.02
2023-01-12T16:46:17.055Z,1.50
2023-01-12T16:48:43.936Z,0.82
2023-01-12T16:51:14.865Z,0.88
2023-01-12T16:53:42.280Z,1.20
2023-01-12T16:56:14.962Z,1.25
2023-01-12T16:58:47.586Z,1.00
2023-01-12T17:01:17.325Z,1.38
2023-01-12T17:03:44.167Z,0.90
2023-01-12T17:06:13.185Z,1.60
2023-01-12T17:08:41.637Z,1.05
2023-01-12T17:11:10.089Z,1.92
2023-01-12T17:13:37.420Z,1.25
2023-01-12T17:16:07.579Z,1.38
2023-01-12T17:18:34.501Z,0.93
2023-01-12T17:21:03.102Z,0.80
2023-01-12T17:23:29.744Z,1.27
2023-01-12T17:26:01.181Z,1.88
2023-01-12T17:28:29.765Z,0.90
2023-01-12T17:30:59.552Z,1.37
2023-01-12T17:33:26.099Z,1.88
2023-01-12T17:35:52.594Z,1.88
2023-01-12T17:38:19.795Z,1.92
2023-01-12T17:40:46.404Z,3.40
2023-01-12T17:43:14.731Z,1.40
2023-01-12T17:45:42.770Z,2.65
2023-01-12T17:48:13.193Z,1.27
2023-01-12T17:50:40.559Z,1.75
2023-01-12T17:53:10.161Z,1.58
2023-01-12T17:55:47.553Z,2.73
2023-01-12T17:58:14.634Z,1.63
2023-01-12T18:00:41.095Z,1.55
2023-01-12T18:03:07.686Z,1.70
2023-01-12T18:05:34.123Z,1.77
2023-01-12T18:08:00.538Z,2.93
2023-01-12T18:10:27.348Z,2.10
2023-01-12T18:12:53.964Z,3.35
2023-01-12T18:15:20.367Z,2.72
2023-01-12T18:17:46.836Z,1.77
2023-01-12T18:20:13.230Z,1.83
2023-01-12T18:22:39.668Z,1.60
2023-01-12T18:25:06.382Z,1.60
2023-01-12T18:27:32.974Z,3.15
2023-01-12T18:29:59.371Z,1.73
2023-01-12T18:32:25.826Z,2.40
2023-01-12T18:34:52.537Z,1.75
2023-01-12T18:37:18.950Z,2.17
2023-01-12T18:39:46.816Z,2.58
2023-01-12T18:42:31.800Z,2.58
2023-01-12T18:44:59.682Z,2.00
2023-01-12T18:47:44.656Z,3.00
2023-01-12T18:50:31.144Z,4.43
2023-01-12T18:53:16.001Z,2.28
2023-01-12T18:55:43.961Z,1.80
2023-01-12T18:58:10.358Z,3.40
2023-01-12T19:00:37.073Z,2.40
2023-01-12T19:03:05.326Z,3.78
2023-01-12T19:05:41.595Z,4.93
2023-01-12T19:08:26.754Z,2.72
2023-01-12T19:10:53.574Z,2.57
2023-01-12T19:13:38.545Z,2.08
2023-01-12T19:16:25.453Z,4.65
2023-01-12T19:18:52.025Z,4.20
2023-01-12T19:21:37.099Z,3.15
2023-01-12T19:24:22.455Z,3.47
2023-01-12T19:27:07.391Z,4.13
2023-01-12T19:29:35.420Z,3.60
2023-01-12T19:32:02.421Z,3.28
2023-01-12T19:34:28.896Z,3.15
2023-01-12T19:36:55.418Z,2.70
2023-01-12T19:39:34.314Z,2.97
2023-01-12T19:42:19.534Z,4.00
2023-01-12T19:44:45.933Z,2.85
2023-01-12T19:47:12.427Z,2.67
2023-01-12T19:49:38.935Z,4.23
2023-01-12T19:52:05.514Z,1.95
2023-01-12T19:54:31.961Z,3.75
2023-01-12T19:56:58.504Z,4.57
2023-01-12T19:59:25.057Z,3.63
2023-01-12T20:01:53.840Z,3.23
2023-01-12T20:04:20.588Z,3.97
2023-01-12T20:06:47.015Z,5.10
2023-01-12T20:09:13.415Z,1.55
2023-01-12T20:11:39.835Z,2.88
2023-01-12T20:14:06.283Z,3.03
2023-01-12T20:16:33.550Z,1.77
2023-01-12T20:18:59.933Z,1.83
2023-01-12T20:21:30.055Z,2.78
2023-01-12T20:23:56.673Z,2.28
2023-01-12T20:26:23.537Z,1.63
2023-01-12T20:28:50.617Z,2.10
2023-01-12T20:31:18.025Z,2.67
2023-01-12T20:33:44.837Z,1.80
2023-01-12T20:36:14.175Z,1.35
2023-01-12T20:38:41.028Z,1.03
2023-01-12T20:41:08.294Z,2.60
2023-01-12T20:43:34.736Z,2.85
2023-01-12T20:46:01.112Z,2.15
2023-01-12T20:48:27.609Z,1.70
2023-01-12T20:50:54.611Z,2.63
2023-01-12T20:53:21.034Z,1.00
2023-01-12T20:55:50.973Z,0.40
2023-01-12T20:58:18.642Z,0.73
2023-01-12T21:00:45.263Z,0.40
2023-01-12T21:03:11.964Z,0.80
2023-01-12T21:05:43.392Z,0.15
2023-01-12T21:08:10.278Z,0.70
2023-01-12T21:10:37.801Z,1.60
2023-01-12T21:13:05.113Z,1.65
2023-01-12T21:15:31.529Z,2.20
2023-01-12T21:17:57.948Z,1.17
2023-01-12T21:20:24.821Z,4.38
2023-01-12T21:22:51.926Z,3.67
2023-01-12T21:25:18.318Z,1.20
2023-01-12T21:27:44.683Z,0.90
2023-01-12T21:30:12.396Z,3.20
2023-01-12T21:32:38.875Z,1.52
2023-01-12T21:35:05.742Z,1.42
2023-01-12T21:37:32.155Z,4.63
2023-01-12T21:39:58.517Z,3.07
2023-01-12T21:42:43.445Z,0.65
2023-01-12T21:45:10.081Z,2.58
2023-01-12T21:47:36.489Z,1.50
2023-01-12T21:50:02.942Z,2.40
2023-01-12T21:52:33.111Z,3.03
2023-01-12T21:54:59.997Z,1.73
2023-01-12T21:57:26.648Z,2.88
2023-01-12T21:59:53.537Z,4.57
2023-01-12T22:02:19.955Z,5.78
2023-01-12T22:04:46.355Z,3.87
2023-01-12T22:07:13.537Z,4.43
2023-01-12T22:09:40.807Z,8.43
2023-01-12T22:12:07.552Z,4.30
2023-01-12T22:14:33.992Z,5.57
2023-01-12T22:17:00.512Z,4.53
2023-01-12T22:19:26.918Z,6.90
2023-01-12T22:21:53.429Z,4.72
2023-01-12T22:24:20.051Z,7.45
2023-01-12T22:26:46.413Z,7.30
2023-01-12T22:29:13.034Z,11.73
2023-01-12T22:31:39.574Z,10.65
2023-01-12T22:34:06.929Z,9.73
2023-01-12T22:36:40.899Z,8.88
2023-01-12T22:39:09.930Z,16.95
2023-01-12T22:41:36.404Z,9.63
2023-01-12T22:44:02.829Z,8.32
2023-01-12T22:46:29.224Z,11.43
2023-01-12T22:48:57.130Z,7.40
2023-01-12T22:51:26.045Z,14.98
2023-01-12T22:53:53.681Z,5.73
2023-01-12T22:56:20.271Z,7.82
2023-01-12T22:58:48.553Z,11.60
2023-01-12T23:01:16.121Z,13.75
2023-01-12T23:03:42.908Z,8.50
2023-01-12T23:06:14.889Z,14.27
2023-01-12T23:08:43.789Z,15.88
2023-01-12T23:11:22.015Z,10.02
2023-01-12T23:13:49.280Z,11.00
2023-01-12T23:16:17.668Z,10.48
2023-01-12T23:18:46.058Z,18.63
2023-01-12T23:21:15.396Z,15.82
2023-01-12T23:23:50.928Z,16.08
2023-01-12T23:26:23.158Z,11.25
2023-01-12T23:28:52.719Z,15.18
2023-01-12T23:31:27.623Z,12.53
2023-01-12T23:33:54.028Z,12.05
2023-01-12T23:36:26.028Z,11.40
2023-01-12T23:38:57.972Z,14.65
2023-01-12T23:41:26.563Z,12.52
2023-01-12T23:43:56.209Z,15.43
2023-01-12T23:46:23.984Z,12.60
2023-01-12T23:48:51.491Z,13.95
2023-01-12T23:51:17.891Z,10.73
2023-01-12T23:53:45.165Z,10.25
2023-01-12T23:56:14.795Z,18.17
2023-01-12T23:58:42.129Z,12.38
